Time;durP1;ratioP1;P1;durP2;ratioP2;P2;SDS_P1;SDS_P2;PMS_P1;PMS_P2;Temp;Humidity;BMP_temperature;BMP_pressure;BME280_temperature;BME280_humidity;BME280_pressure;Samples;Min_cycle;Max_cycle;Signal;HPM_P1;HPM_P2
2023/06/03 00:00:13;;;;;;;13.10;6.13;;;15.00;6.40;;;;;;5054870;28;20250;-79
2023/06/03 00:02:40;;;;;;;12.73;5.83;;;15.00;10.30;;;;;;5051853;28;20183;-81
2023/06/03 00:05:08;;;;;;;11.80;6.10;;;15.10;9.80;;;;;;5040499;28;20517;-80
2023/06/03 00:07:37;;;;;;;10.97;6.10;;;15.00;13.20;;;;;;5055519;28;20191;-80
2023/06/03 00:10:03;;;;;;;11.03;6.10;;;15.00;16.10;;;;;;5054883;28;20164;-80
2023/06/03 00:12:29;;;;;;;12.80;6.03;;;14.90;17.70;;;;;;5054572;28;20609;-82
2023/06/03 00:14:54;;;;;;;9.23;5.50;;;14.90;19.60;;;;;;5055473;28;20222;-80
2023/06/03 00:17:21;;;;;;;11.63;6.73;;;14.90;22.50;;;;;;5057408;28;20189;-81
2023/06/03 00:19:48;;;;;;;8.50;6.23;;;14.90;22.50;;;;;;5064463;28;20168;-79
2023/06/03 00:22:14;;;;;;;12.37;6.13;;;14.80;25.30;;;;;;5075895;28;20225;-80
2023/06/03 00:24:40;;;;;;;11.47;6.67;;;14.80;28.00;;;;;;5065949;28;20180;-80
2023/06/03 00:27:05;;;;;;;11.30;6.67;;;14.80;30.50;;;;;;5037592;28;20176;-82
2023/06/03 00:29:32;;;;;;;11.80;6.67;;;14.80;33.40;;;;;;5055797;28;20186;-82
2023/06/03 00:32:04;;;;;;;13.07;6.47;;;14.70;35.20;;;;;;5053583;28;20168;-79
2023/06/03 00:34:30;;;;;;;12.67;6.50;;;14.70;37.40;;;;;;5036525;28;20191;-82
2023/06/03 00:36:56;;;;;;;12.23;6.97;;;14.60;40.80;;;;;;5054205;28;20171;-81
2023/06/03 00:39:22;;;;;;;13.00;6.80;;;14.60;42.50;;;;;;5035600;28;20208;-81
2023/06/03 00:41:48;;;;;;;11.23;6.90;;;14.60;46.10;;;;;;5035915;28;20212;-80
2023/06/03 00:44:14;;;;;;;12.77;6.27;;;14.60;46.70;;;;;;5053935;28;20191;-80
2023/06/03 00:46:41;;;;;;;9.03;6.43;;;14.50;49.70;;;;;;5053907;28;20172;-81
2023/06/03 00:49:07;;;;;;;11.93;6.90;;;14.50;51.40;;;;;;5034657;28;20182;-80
2023/06/03 00:51:35;;;;;;;12.30;6.73;;;14.50;54.10;;;;;;5053685;28;20528;-80
2023/06/03 00:54:01;;;;;;;10.77;6.90;;;14.50;55.20;;;;;;5035946;28;20591;-80
2023/06/03 00:56:29;;;;;;;11.77;6.67;;;14.50;54.90;;;;;;5035565;28;20174;-80
2023/06/03 00:58:55;;;;;;;14.03;7.23;;;14.50;56.00;;;;;;5052989;28;20247;-80
2023/06/03 01:01:21;;;;;;;14.43;7.30;;;14.50;57.00;;;;;;5053570;28;20180;-81
2023/06/03 01:03:48;;;;;;;9.80;7.50;;;14.50;57.40;;;;;;5052967;28;20179;-80
2023/06/03 01:06:45;;;;;;;12.03;7.60;;;14.50;58.40;;;;;;5057052;28;20167;-79
2023/06/03 01:09:44;;;;;;;10.10;7.37;;;14.50;58.50;;;;;;5056669;28;20172;-80
2023/06/03 01:12:34;;;;;;;10.77;7.50;;;14.40;59.80;;;;;;5046319;28;20219;-81
2023/06/03 01:15:07;;;;;;;14.30;7.63;;;14.40;62.00;;;;;;5052852;28;20165;-81
2023/06/03 01:17:39;;;;;;;13.87;8.37;;;14.40;63.00;;;;;;5052672;28;20215;-82
2023/06/03 01:20:10;;;;;;;13.30;7.80;;;14.40;64.90;;;;;;5068560;28;20181;-80
2023/06/03 01:22:40;;;;;;;14.90;7.77;;;14.40;66.60;;;;;;5052828;28;20158;-81
2023/06/03 01:25:11;;;;;;;11.17;7.93;;;14.50;66.30;;;;;;5052259;28;20187;-80
2023/06/03 01:27:39;;;;;;;14.33;8.50;;;14.40;67.50;;;;;;5053339;28;20255;-80
2023/06/03 01:30:10;;;;;;;17.93;8.57;;;14.50;68.30;;;;;;5034511;28;20174;-80
2023/06/03 01:32:38;;;;;;;9.37;7.27;;;14.40;68.10;;;;;;5035106;28;20516;-82
2023/06/03 01:35:07;;;;;;;11.80;8.17;;;14.40;67.10;;;;;;5052845;28;20181;-78
2023/06/03 01:37:33;;;;;;;11.47;8.83;;;14.50;66.70;;;;;;5043514;28;20211;-81
2023/06/03 01:40:00;;;;;;;13.40;7.90;;;14.40;66.50;;;;;;5070853;28;20169;-79
2023/06/03 01:42:26;;;;;;;11.77;8.70;;;14.40;68.10;;;;;;5063913;28;20625;-79
2023/06/03 01:44:53;;;;;;;10.73;7.83;;;14.40;69.80;;;;;;5039301;28;20233;-79
2023/06/03 01:47:19;;;;;;;11.37;8.30;;;14.40;73.90;;;;;;5056745;28;20178;-80
2023/06/03 01:49:46;;;;;;;11.63;8.50;;;14.40;72.60;;;;;;5056695;28;20202;-80
2023/06/03 01:52:11;;;;;;;13.00;8.73;;;14.40;72.40;;;;;;5056313;28;20267;-79
2023/06/03 01:54:37;;;;;;;14.03;8.43;;;14.40;74.90;;;;;;5056384;28;20173;-79
2023/06/03 01:57:03;;;;;;;13.17;9.10;;;14.40;73.40;;;;;;5055963;28;20162;-80
2023/06/03 01:59:29;;;;;;;11.70;8.57;;;14.40;69.80;;;;;;5037769;28;20220;-80
2023/06/03 02:01:59;;;;;;;18.07;9.57;;;14.40;70.90;;;;;;5038067;28;20342;-80
2023/06/03 02:04:26;;;;;;;14.90;9.20;;;14.40;69.80;;;;;;5037159;28;20181;-79
2023/06/03 02:06:59;;;;;;;14.53;8.63;;;14.40;71.20;;;;;;5039071;28;20274;-79
2023/06/03 02:09:28;;;;;;;12.47;9.10;;;14.40;68.20;;;;;;5038663;28;20532;-79
2023/06/03 02:11:55;;;;;;;13.87;9.13;;;14.40;67.00;;;;;;5038810;28;20214;-80
2023/06/03 02:14:21;;;;;;;12.87;8.47;;;14.40;66.50;;;;;;5055935;28;20623;-80
2023/06/03 02:16:48;;;;;;;15.00;9.50;;;14.30;65.20;;;;;;5037404;28;20181;-80
2023/06/03 02:19:19;;;;;;;15.60;9.20;;;14.30;68.70;;;;;;5038443;28;20272;-81
2023/06/03 02:21:45;;;;;;;15.13;8.63;;;14.30;70.40;;;;;;5038065;28;20214;-80
2023/06/03 02:24:14;;;;;;;14.30;8.70;;;14.20;67.90;;;;;;5039038;28;20172;-81
2023/06/03 02:27:24;;;;;;;16.43;9.17;;;14.20;67.80;;;;;;5044868;28;20176;-78
2023/06/03 02:29:30;;;;;;;14.23;8.87;;;14.20;68.90;;;;;;5058222;28;20181;-79
2023/06/03 02:31:57;;;;;;;13.00;9.70;;;14.30;67.50;;;;;;5038087;28;20199;-80
2023/06/03 02:34:23;;;;;;;15.30;9.20;;;14.30;67.90;;;;;;5039866;28;20173;-79
2023/06/03 02:36:49;;;;;;;15.10;9.07;;;14.30;66.00;;;;;;5038010;28;20172;-81
2023/06/03 02:39:16;;;;;;;13.20;8.63;;;14.30;66.00;;;;;;5055632;28;20215;-80
2023/06/03 02:41:44;;;;;;;15.27;8.63;;;14.30;66.30;;;;;;5056124;28;20180;-82
2023/06/03 02:44:10;;;;;;;18.37;9.00;;;14.30;63.40;;;;;;5055585;28;20167;-81
2023/06/03 02:46:36;;;;;;;16.93;9.77;;;14.30;64.90;;;;;;5055399;28;20161;-81
2023/06/03 02:49:06;;;;;;;12.13;8.40;;;14.20;66.00;;;;;;5037540;28;20176;-80
2023/06/03 02:51:32;;;;;;;14.43;9.83;;;14.20;65.50;;;;;;5054885;28;20225;-80
2023/06/03 02:53:58;;;;;;;14.40;9.30;;;14.10;64.90;;;;;;5037103;28;20171;-80
2023/06/03 02:56:24;;;;;;;12.13;9.17;;;14.10;63.40;;;;;;5036200;28;20173;-80
2023/06/03 02:58:50;;;;;;;12.60;9.57;;;14.00;69.00;;;;;;5053797;28;20617;-80
2023/06/03 03:01:19;;;;;;;14.20;9.60;;;14.00;71.20;;;;;;5054438;28;20165;-80
2023/06/03 03:03:46;;;;;;;16.17;10.17;;;14.00;70.90;;;;;;5037459;28;20175;-81
2023/06/03 03:06:14;;;;;;;18.07;9.97;;;14.10;69.10;;;;;;5037031;28;20165;-81
2023/06/03 03:08:40;;;;;;;13.87;9.10;;;14.10;69.20;;;;;;5054820;28;20172;-79
2023/06/03 03:11:09;;;;;;;12.77;9.23;;;14.00;67.50;;;;;;5055187;28;20225;-81
2023/06/03 03:13:35;;;;;;;15.93;9.53;;;14.00;67.70;;;;;;5056185;28;20201;-80
2023/06/03 03:16:01;;;;;;;14.23;9.03;;;14.00;69.60;;;;;;5037527;28;20190;-79
2023/06/03 03:18:26;;;;;;;14.70;10.13;;;13.90;73.70;;;;;;5056502;28;20271;-79
2023/06/03 03:20:52;;;;;;;16.03;9.90;;;13.90;74.60;;;;;;5043940;28;20207;-78
2023/06/03 03:23:18;;;;;;;16.13;10.23;;;13.80;73.90;;;;;;5075126;28;20245;-80
2023/06/03 03:25:45;;;;;;;15.73;10.40;;;13.80;77.30;;;;;;5052965;28;20178;-79
2023/06/03 03:28:12;;;;;;;14.63;9.93;;;13.80;79.00;;;;;;5065145;28;20167;-80
2023/06/03 03:30:45;;;;;;;14.67;10.30;;;13.80;78.70;;;;;;5056844;28;20174;-80
2023/06/03 03:33:15;;;;;;;15.00;9.63;;;13.70;78.50;;;;;;5037613;28;20174;-80
2023/06/03 03:35:41;;;;;;;13.20;10.07;;;13.80;76.70;;;;;;5064637;28;20167;-81
2023/06/03 03:38:07;;;;;;;12.43;9.57;;;13.70;76.50;;;;;;5061197;28;20198;-78
2023/06/03 03:40:36;;;;;;;16.20;10.47;;;13.70;77.00;;;;;;5058900;28;20169;-79
2023/06/03 03:43:05;;;;;;;14.87;10.13;;;13.70;73.80;;;;;;5042308;28;20196;-79
2023/06/03 03:45:36;;;;;;;16.30;10.03;;;13.70;73.40;;;;;;5068694;28;20176;-80
2023/06/03 03:48:15;;;;;;;14.87;10.07;;;13.70;76.10;;;;;;5059206;28;20183;-80
2023/06/03 03:50:43;;;;;;;15.93;9.43;;;13.60;76.80;;;;;;5061369;28;20176;-80
2023/06/03 03:53:21;;;;;;;16.53;10.17;;;13.60;72.80;;;;;;5055087;28;20271;-79
2023/06/03 03:55:59;;;;;;;16.33;10.60;;;13.50;76.30;;;;;;5054440;28;20183;-80
2023/06/03 03:58:37;;;;;;;14.73;9.80;;;13.50;77.90;;;;;;5053852;28;20214;-79
2023/06/03 04:01:16;;;;;;;14.43;9.37;;;13.50;75.70;;;;;;5036066;28;20209;-79
2023/06/03 04:03:45;;;;;;;16.30;9.80;;;13.60;73.30;;;;;;5053193;28;20200;-81
2023/06/03 04:06:14;;;;;;;13.87;9.67;;;13.60;71.60;;;;;;5069271;28;20214;-80
2023/06/03 04:08:46;;;;;;;16.67;9.57;;;13.70;67.90;;;;;;5053565;28;20167;-80
2023/06/03 04:11:29;;;;;;;14.27;10.33;;;13.60;69.60;;;;;;5053778;28;20327;-79
2023/06/03 04:13:58;;;;;;;14.37;9.53;;;13.60;66.50;;;;;;5053421;28;20670;-80
2023/06/03 04:16:48;;;;;;;18.00;10.33;;;13.60;68.40;;;;;;5053625;28;20175;-80
2023/06/03 04:19:20;;;;;;;16.83;10.47;;;13.50;68.60;;;;;;5037023;28;20306;-77
2023/06/03 04:21:46;;;;;;;15.20;10.00;;;13.40;72.40;;;;;;5053962;28;20162;-79
2023/06/03 04:24:13;;;;;;;17.23;9.47;;;13.50;71.40;;;;;;5053635;28;20173;-80
2023/06/03 04:26:41;;;;;;;16.57;10.17;;;13.40;69.10;;;;;;5035878;28;20293;-80
2023/06/03 04:29:07;;;;;;;16.27;9.73;;;13.50;66.80;;;;;;5053482;28;20169;-79
2023/06/03 04:31:32;;;;;;;15.77;9.83;;;13.50;65.80;;;;;;5053616;28;20169;-80
2023/06/03 04:33:58;;;;;;;14.77;10.07;;;13.50;63.30;;;;;;5052813;28;20193;-80
2023/06/03 04:36:23;;;;;;;14.20;10.00;;;13.60;63.80;;;;;;5053695;28;20631;-80
2023/06/03 04:38:51;;;;;;;16.27;9.57;;;13.60;58.90;;;;;;5035365;28;20295;-81
2023/06/03 04:41:17;;;;;;;14.40;10.30;;;13.50;58.10;;;;;;5052837;28;20632;-79
2023/06/03 04:43:45;;;;;;;15.57;9.90;;;13.80;60.60;;;;;;5052728;28;20202;-80
2023/06/03 04:46:11;;;;;;;17.20;10.03;;;13.70;57.00;;;;;;5034854;28;20168;-80
2023/06/03 04:48:41;;;;;;;14.07;9.67;;;13.70;57.20;;;;;;5053447;28;20198;-79
2023/06/03 04:51:07;;;;;;;13.50;10.80;;;13.70;52.80;;;;;;5033960;28;20170;-80
2023/06/03 04:53:36;;;;;;;12.40;9.47;;;13.70;51.10;;;;;;5034992;28;20686;-79
2023/06/03 04:56:03;;;;;;;15.87;10.30;;;13.70;49.30;;;;;;5052959;28;20174;-79
2023/06/03 04:58:29;;;;;;;15.17;10.10;;;13.90;49.90;;;;;;5053069;28;20680;-79
2023/06/03 05:00:55;;;;;;;12.67;9.50;;;13.80;42.90;;;;;;5035061;28;20174;-79
2023/06/03 05:03:22;;;;;;;15.27;9.67;;;13.90;41.80;;;;;;5052860;28;20637;-80
2023/06/03 05:05:48;;;;;;;16.40;10.77;;;13.80;41.10;;;;;;5052915;28;20198;-80
2023/06/03 05:08:14;;;;;;;17.93;10.33;;;13.90;34.90;;;;;;5035171;28;20586;-79
2023/06/03 05:10:40;;;;;;;12.57;8.90;;;13.90;30.90;;;;;;5052378;28;20177;-79
2023/06/03 05:13:06;;;;;;;17.07;9.50;;;13.90;25.00;;;;;;5052080;28;20663;-81
2023/06/03 05:15:33;;;;;;;15.87;9.07;;;14.00;25.50;;;;;;5034597;28;20186;-80
2023/06/03 05:18:02;;;;;;;16.27;10.03;;;14.10;22.40;;;;;;5053139;28;20208;-80
2023/06/03 05:20:29;;;;;;;11.57;8.80;;;14.20;18.70;;;;;;5056908;28;20625;-80
2023/06/03 05:22:55;;;;;;;13.90;9.70;;;14.20;13.10;;;;;;5056850;28;20172;-79
2023/06/03 05:25:22;;;;;;;14.67;8.83;;;14.20;12.10;;;;;;5056246;28;20161;-80
2023/06/03 05:27:48;;;;;;;12.67;8.53;;;14.30;8.90;;;;;;5056267;28;20674;-79
2023/06/03 05:30:14;;;;;;;11.97;8.40;;;14.40;4.60;;;;;;5056133;28;20161;-79
2023/06/03 05:32:41;;;;;;;14.00;8.53;;;14.40;1.00;;;;;;5063718;28;20194;-79
2023/06/03 05:35:11;;;;;;;14.33;8.83;;;14.50;1.00;;;;;;5057690;28;20188;-79
2023/06/03 05:37:37;;;;;;;11.23;8.60;;;14.50;1.00;;;;;;5047274;28;20223;-80
2023/06/03 05:40:02;;;;;;;14.67;8.67;;;14.60;1.00;;;;;;5056921;28;20642;-80
2023/06/03 05:42:28;;;;;;;19.23;8.37;;;14.70;1.00;;;;;;5056595;28;20173;-79
2023/06/03 05:44:55;;;;;;;12.10;8.23;;;14.70;1.00;;;;;;5038704;28;20192;-80
2023/06/03 05:47:21;;;;;;;15.60;8.10;;;14.70;1.00;;;;;;5056389;28;20192;-80
2023/06/03 05:49:47;;;;;;;12.13;8.90;;;14.80;1.00;;;;;;5056423;28;20169;-78
2023/06/03 05:52:14;;;;;;;12.40;8.43;;;14.90;1.00;;;;;;5042086;28;20531;-79
2023/06/03 05:54:40;;;;;;;14.20;8.07;;;15.00;1.00;;;;;;5062931;28;20169;-79
2023/06/03 05:57:06;;;;;;;15.00;8.30;;;15.10;1.00;;;;;;5063657;28;20200;-79
2023/06/03 05:59:32;;;;;;;11.70;8.10;;;15.10;1.00;;;;;;5040042;28;20212;-79
2023/06/03 06:01:58;;;;;;;15.13;8.23;;;15.20;1.00;;;;;;5060644;28;20176;-78
2023/06/03 06:04:24;;;;;;;16.03;7.90;;;15.30;1.00;;;;;;5064556;28;20170;-79
2023/06/03 06:06:49;;;;;;;11.70;7.87;;;15.40;1.00;;;;;;5072867;28;20154;-79
2023/06/03 06:09:16;;;;;;;12.60;7.67;;;15.20;1.00;;;;;;5075919;28;20161;-80
2023/06/03 06:11:42;;;;;;;13.03;7.07;;;15.30;1.00;;;;;;5057689;28;20256;-80
2023/06/03 06:14:08;;;;;;;9.80;6.93;;;15.40;1.00;;;;;;5044305;28;20625;-79
2023/06/03 06:16:34;;;;;;;10.63;6.73;;;15.40;1.00;;;;;;5064298;28;20174;-80
2023/06/03 06:19:00;;;;;;;10.80;6.20;;;15.50;1.00;;;;;;5059514;28;20208;-82
2023/06/03 06:21:26;;;;;;;13.87;6.87;;;15.50;1.00;;;;;;5095117;28;20241;-79
2023/06/03 06:23:52;;;;;;;10.07;6.77;;;15.60;1.00;;;;;;5061709;28;20176;-79
2023/06/03 06:26:18;;;;;;;10.87;6.70;;;15.60;1.00;;;;;;5053905;28;20192;-81
2023/06/03 06:28:45;;;;;;;12.60;6.90;;;15.80;1.00;;;;;;5072343;28;20169;-78
2023/06/03 06:31:13;;;;;;;10.53;6.67;;;15.90;1.00;;;;;;5072165;28;20168;-79
2023/06/03 06:33:41;;;;;;;11.77;6.57;;;15.80;1.00;;;;;;5062971;28;20710;-79
2023/06/03 06:36:29;;;;;;;8.60;6.37;;;15.80;1.00;;;;;;5065962;28;20173;-81
2023/06/03 06:38:56;;;;;;;11.43;7.10;;;16.00;1.00;;;;;;5067913;28;20201;-79
2023/06/03 06:41:25;;;;;;;10.73;6.20;;;16.00;1.00;;;;;;5074309;28;20165;-79
2023/06/03 06:43:52;;;;;;;10.70;6.47;;;16.10;1.00;;;;;;5075200;28;20197;-83
2023/06/03 06:46:18;;;;;;;9.00;5.70;;;16.10;1.00;;;;;;5057236;28;20192;-82
2023/06/03 06:48:44;;;;;;;10.00;5.90;;;16.20;1.00;;;;;;5071340;28;20173;-78
2023/06/03 06:51:11;;;;;;;7.73;5.30;;;16.30;1.00;;;;;;5054597;28;20164;-79
2023/06/03 06:53:38;;;;;;;10.57;6.50;;;16.50;1.00;;;;;;5045156;28;20167;-81
2023/06/03 06:56:08;;;;;;;10.93;6.03;;;16.60;1.00;;;;;;5056778;28;20196;-81
2023/06/03 06:58:38;;;;;;;8.63;6.03;;;16.70;1.00;;;;;;5039064;28;20402;-81
2023/06/03 07:01:06;;;;;;;12.50;6.13;;;16.70;1.00;;;;;;5057235;28;20525;-80
2023/06/03 07:03:36;;;;;;;10.23;6.40;;;16.80;1.00;;;;;;5040422;28;20177;-80
2023/06/03 07:06:03;;;;;;;9.20;5.00;;;16.80;1.00;;;;;;5057990;28;20170;-79
2023/06/03 07:08:39;;;;;;;11.73;5.80;;;16.90;1.00;;;;;;5058536;28;20165;-80
2023/06/03 07:11:06;;;;;;;8.80;5.40;;;16.90;1.00;;;;;;5043764;28;20286;-79
2023/06/03 07:13:32;;;;;;;11.67;5.80;;;16.90;1.00;;;;;;5067664;28;20183;-80
2023/06/03 07:16:01;;;;;;;8.40;5.80;;;17.10;1.00;;;;;;5046337;28;20173;-80
2023/06/03 07:18:32;;;;;;;7.93;5.07;;;17.10;1.00;;;;;;5069084;28;20220;-82
2023/06/03 07:21:00;;;;;;;9.90;5.30;;;16.90;1.00;;;;;;5061917;28;20620;-80
2023/06/03 07:23:33;;;;;;;10.47;5.47;;;16.80;1.00;;;;;;5071404;28;20629;-78
2023/06/03 07:26:04;;;;;;;8.27;5.00;;;16.90;1.00;;;;;;5052575;28;20683;-80
2023/06/03 07:28:35;;;;;;;9.70;5.07;;;16.90;1.00;;;;;;5044455;28;20256;-80
2023/06/03 07:34:23;;;;;;;8.43;4.10;;;17.10;1.00;;;;;;5055133;28;20236;-81
2023/06/03 07:36:54;;;;;;;7.87;4.50;;;17.20;1.00;;;;;;5054648;28;20173;-80
2023/06/03 07:39:21;;;;;;;10.10;4.43;;;17.30;1.00;;;;;;5056147;28;20195;-80
2023/06/03 07:41:50;;;;;;;7.07;4.70;;;17.40;1.00;;;;;;5055777;28;20537;-80
2023/06/03 07:44:25;;;;;;;6.83;4.00;;;17.60;1.00;;;;;;5036393;28;20248;-80
2023/06/03 07:46:57;;;;;;;8.43;4.33;;;17.70;1.00;;;;;;5054366;28;20166;-81
2023/06/03 07:49:23;;;;;;;9.60;4.93;;;17.70;1.00;;;;;;5054836;28;20233;-80
2023/06/03 07:51:51;;;;;;;8.57;4.03;;;17.50;1.00;;;;;;5054763;28;20639;-80
2023/06/03 07:54:18;;;;;;;7.90;3.60;;;17.60;1.00;;;;;;5054092;28;20199;-81
2023/06/03 07:56:47;;;;;;;8.50;3.57;;;17.70;1.00;;;;;;5036878;28;20178;-80
2023/06/03 07:59:15;;;;;;;9.43;3.93;;;17.80;1.00;;;;;;5017337;28;20209;-80
2023/06/03 08:01:42;;;;;;;6.50;3.00;;;17.90;1.00;;;;;;5054469;28;20175;-78
2023/06/03 08:04:20;;;;;;;6.53;3.60;;;17.90;99.90;;;;;;5054406;28;20166;-80
2023/06/03 08:06:49;;;;;;;7.47;3.20;;;18.00;99.90;;;;;;5036497;28;20175;-80
2023/06/03 08:09:27;;;;;;;8.87;2.80;;;18.20;99.90;;;;;;5054434;28;20633;-82
2023/06/03 08:11:55;;;;;;;7.00;3.60;;;18.20;99.90;;;;;;5036530;28;20236;-79
2023/06/03 08:14:23;;;;;;;9.03;3.30;;;18.30;99.90;;;;;;5036102;28;20177;-81
2023/06/03 08:16:50;;;;;;;6.00;2.83;;;18.30;99.90;;;;;;5037413;28;20509;-82
2023/06/03 08:19:17;;;;;;;7.37;2.60;;;18.30;99.90;;;;;;5037773;28;20211;-81
2023/06/03 08:21:48;;;;;;;8.03;2.97;;;18.50;99.90;;;;;;5035962;28;20524;-79
2023/06/03 08:24:15;;;;;;;7.40;2.90;;;18.60;63.30;;;;;;5058245;28;20293;-80
2023/06/03 08:26:44;;;;;;;4.87;2.27;;;18.60;1.00;;;;;;5054986;28;20184;-80
2023/06/03 08:29:13;;;;;;;7.57;2.47;;;18.60;1.00;;;;;;5036289;28;20162;-81
2023/06/03 08:31:45;;;;;;;5.97;2.30;;;18.60;1.00;;;;;;5055104;28;20166;-80
2023/06/03 08:34:12;;;;;;;5.43;2.30;;;18.70;99.90;;;;;;5054693;28;20237;-79
2023/06/03 08:36:39;;;;;;;8.07;2.80;;;18.60;1.00;;;;;;5038981;28;20623;-80
2023/06/03 08:39:06;;;;;;;8.10;3.00;;;18.70;1.00;;;;;;5054375;28;20230;-79
2023/06/03 08:41:39;;;;;;;7.03;2.90;;;19.00;1.00;;;;;;5036537;28;20177;-80
2023/06/03 08:44:22;;;;;;;8.40;2.77;;;19.10;1.00;;;;;;5034377;28;20178;-80
2023/06/03 08:47:16;;;;;;;5.53;2.60;;;19.30;1.00;;;;;;5049965;28;20166;-80
2023/06/03 08:50:05;;;;;;;20.67;3.63;;;19.20;72.40;;;;;;5052084;28;20617;-80
2023/06/03 08:52:35;;;;;;;6.50;2.57;;;19.20;1.00;;;;;;5053649;28;20175;-79
2023/06/03 08:55:01;;;;;;;12.57;2.70;;;19.20;99.90;;;;;;5049088;28;20228;-80
2023/06/03 08:57:45;;;;;;;5.93;2.17;;;19.40;1.00;;;;;;5054496;28;20153;-81
2023/06/03 09:00:14;;;;;;;4.07;2.07;;;19.50;99.90;;;;;;5035904;28;20242;-79
2023/06/03 09:02:41;;;;;;;4.33;2.43;;;19.50;1.00;;;;;;5017217;28;20199;-81
2023/06/03 09:05:08;;;;;;;7.10;2.23;;;19.50;99.90;;;;;;5016525;28;20518;-81
2023/06/03 09:07:35;;;;;;;6.00;2.47;;;19.60;19.00;;;;;;5045419;28;20174;-84
2023/06/03 09:10:04;;;;;;;8.17;2.60;;;19.60;1.00;;;;;;5053504;28;20182;-83
2023/06/03 09:12:32;;;;;;;6.13;2.00;;;19.80;99.90;;;;;;5036302;28;20183;-83
2023/06/03 09:14:59;;;;;;;9.07;2.60;;;19.70;1.00;;;;;;5053325;28;20266;-84
2023/06/03 09:17:26;;;;;;;3.80;2.43;;;19.50;99.90;;;;;;5054300;28;20182;-83
2023/06/03 09:19:54;;;;;;;5.83;1.90;;;19.50;1.00;;;;;;5053968;28;20190;-82
2023/06/03 09:22:21;;;;;;;7.30;2.40;;;19.50;1.00;;;;;;5035515;28;20215;-83
2023/06/03 09:24:47;;;;;;;4.90;2.23;;;19.40;1.00;;;;;;5053233;28;20181;-78
2023/06/03 09:27:13;;;;;;;19.87;3.50;;;19.60;83.60;;;;;;5054192;28;20183;-81
2023/06/03 09:29:38;;;;;;;5.80;2.30;;;19.80;99.90;;;;;;5052482;28;20183;-80
2023/06/03 09:32:05;;;;;;;8.83;2.00;;;19.60;99.90;;;;;;5035702;28;20188;-79
2023/06/03 09:34:31;;;;;;;7.30;2.60;;;19.50;99.90;;;;;;5054639;28;20170;-80
2023/06/03 09:37:07;;;;;;;4.77;2.17;;;19.50;99.90;;;;;;5057276;28;20224;-79
2023/06/03 09:39:34;;;;;;;17.07;3.90;;;19.60;1.00;;;;;;5038397;28;20217;-78
2023/06/03 09:42:00;;;;;;;5.00;2.13;;;19.80;1.00;;;;;;5033780;28;20268;-77
2023/06/03 09:44:49;;;;;;;5.03;2.20;;;19.80;1.00;;;;;;5035166;28;20226;-82
2023/06/03 09:47:15;;;;;;;6.63;2.20;;;19.80;99.90;;;;;;5033567;28;20251;-80
2023/06/03 09:50:02;;;;;;;7.80;2.80;;;19.70;99.90;;;;;;5042343;28;20182;-81
2023/06/03 09:52:32;;;;;;;4.87;2.10;;;19.80;99.90;;;;;;5036375;28;20258;-82
2023/06/03 09:55:05;;;;;;;4.57;2.20;;;20.00;1.00;;;;;;5036160;28;20179;-81
2023/06/03 09:57:32;;;;;;;4.90;1.93;;;20.10;1.00;;;;;;5044708;28;20176;-79
2023/06/03 10:00:11;;;;;;;5.57;2.10;;;20.10;99.90;;;;;;5070628;28;20205;-79
2023/06/03 10:02:44;;;;;;;5.77;2.10;;;19.90;99.90;;;;;;5042103;28;20171;-80
2023/06/03 10:05:29;;;;;;;4.67;2.23;;;20.00;99.90;;;;;;5038023;28;20626;-81
2023/06/03 10:07:57;;;;;;;8.30;2.40;;;20.10;99.90;;;;;;5073109;28;20185;-79
2023/06/03 10:10:23;;;;;;;4.87;2.17;;;20.20;22.80;;;;;;5054926;28;20261;-82
2023/06/03 10:12:53;;;;;;;6.20;2.00;;;20.30;1.00;;;;;;5062502;28;20179;-82
2023/06/03 10:15:38;;;;;;;6.13;2.67;;;20.40;1.00;;;;;;5058065;28;20161;-81
2023/06/03 10:18:40;;;;;;;7.60;2.47;;;20.30;1.00;;;;;;5039878;28;20242;-80
2023/06/03 10:21:11;;;;;;;8.77;2.67;;;20.30;1.00;;;;;;5057784;28;20171;-81
2023/06/03 10:23:38;;;;;;;4.00;2.00;;;20.30;1.00;;;;;;5039170;28;20187;-84
2023/06/03 10:26:05;;;;;;;5.57;1.90;;;20.40;1.00;;;;;;5063960;28;20207;-81
2023/06/03 10:28:32;;;;;;;4.70;2.23;;;20.50;1.00;;;;;;5052522;28;20179;-80
2023/06/03 10:31:00;;;;;;;5.23;2.20;;;20.50;99.90;;;;;;5058924;28;20201;-79
2023/06/03 10:33:29;;;;;;;5.07;1.80;;;20.40;99.90;;;;;;5061496;28;20173;-80
2023/06/03 10:35:57;;;;;;;5.23;2.20;;;20.40;99.90;;;;;;5054282;28;20613;-81
2023/06/03 10:38:24;;;;;;;8.80;2.77;;;20.40;99.90;;;;;;5046328;28;20196;-80
2023/06/03 10:40:50;;;;;;;5.27;2.37;;;20.50;99.90;;;;;;5058082;28;20158;-81
2023/06/03 10:43:38;;;;;;;9.17;2.50;;;20.50;1.00;;;;;;5056617;28;20490;-81
2023/06/03 10:46:05;;;;;;;6.07;2.10;;;20.50;99.90;;;;;;5057643;28;20161;-81
2023/06/03 10:48:33;;;;;;;5.40;1.90;;;20.60;1.00;;;;;;5038978;28;20176;-80
2023/06/03 10:51:14;;;;;;;5.13;2.63;;;20.50;99.90;;;;;;5058108;28;20534;-81
2023/06/03 10:54:02;;;;;;;8.50;2.53;;;20.50;99.90;;;;;;5057972;28;20181;-81
2023/06/03 10:56:33;;;;;;;5.80;2.70;;;20.70;99.90;;;;;;5058239;28;20164;-80
2023/06/03 10:59:15;;;;;;;5.90;2.40;;;20.80;99.90;;;;;;5058662;28;20315;-80
2023/06/03 11:01:58;;;;;;;6.67;2.50;;;20.70;1.00;;;;;;5058742;28;20241;-80
2023/06/03 11:04:25;;;;;;;6.47;2.53;;;20.70;1.00;;;;;;5060139;28;20207;-81
2023/06/03 11:06:50;;;;;;;3.83;2.13;;;20.80;1.00;;;;;;5037461;28;20544;-81
2023/06/03 11:09:30;;;;;;;6.07;2.20;;;20.90;1.00;;;;;;5055695;28;20265;-82
2023/06/03 11:12:04;;;;;;;3.77;2.17;;;21.10;1.00;;;;;;5038681;28;20205;-82
2023/06/03 11:14:30;;;;;;;4.80;2.47;;;21.10;1.00;;;;;;5056721;28;20192;-81
2023/06/03 11:17:01;;;;;;;4.87;2.33;;;21.10;99.90;;;;;;5038494;28;20190;-82
2023/06/03 11:19:54;;;;;;;3.77;2.20;;;21.00;99.90;;;;;;5038240;28;20676;-81
2023/06/03 11:22:28;;;;;;;3.90;2.00;;;20.90;99.90;;;;;;5035773;28;20275;-82
2023/06/03 11:24:58;;;;;;;6.23;1.93;;;21.00;99.90;;;;;;5039482;28;20173;-80
2023/06/03 11:27:26;;;;;;;8.10;2.20;;;21.30;99.90;;;;;;5039385;28;20202;-83
2023/06/03 11:29:59;;;;;;;6.70;2.50;;;21.30;99.90;;;;;;5038223;28;20170;-80
2023/06/03 11:32:36;;;;;;;6.90;1.80;;;21.30;99.90;;;;;;5056647;28;20197;-81
2023/06/03 11:35:05;;;;;;;2.80;1.80;;;21.40;99.90;;;;;;5038708;28;20642;-81
2023/06/03 11:37:41;;;;;;;13.20;2.03;;;21.40;99.90;;;;;;5052341;28;20173;-82
2023/06/03 11:40:14;;;;;;;5.50;2.33;;;21.40;99.90;;;;;;5056514;28;20207;-85
2023/06/03 11:42:46;;;;;;;3.27;2.00;;;21.40;99.90;;;;;;5057096;28;20164;-83
2023/06/03 11:45:25;;;;;;;9.27;2.60;;;21.50;99.90;;;;;;5057049;28;20260;-83
2023/06/03 11:48:05;;;;;;;9.30;2.40;;;21.70;99.90;;;;;;5057842;28;20185;-83
2023/06/03 11:50:33;;;;;;;4.33;1.97;;;21.70;99.90;;;;;;5039665;28;20191;-83
2023/06/03 11:53:01;;;;;;;3.80;1.77;;;21.70;99.90;;;;;;5038874;28;20236;-82
2023/06/03 11:55:32;;;;;;;7.17;2.47;;;21.40;23.50;;;;;;5037779;28;20173;-82
2023/06/03 11:58:12;;;;;;;5.33;2.00;;;21.50;73.40;;;;;;5038221;28;20197;-82
2023/06/03 12:00:38;;;;;;;13.07;2.60;;;21.70;43.60;;;;;;5055383;28;20181;-81
2023/06/03 12:03:06;;;;;;;10.53;2.60;;;21.60;1.00;;;;;;5037478;28;20182;-83
2023/06/03 12:05:31;;;;;;;4.37;2.20;;;21.50;1.00;;;;;;5056469;28;20532;-83
2023/06/03 12:08:00;;;;;;;4.90;2.57;;;21.70;19.50;;;;;;5039812;28;20158;-83
2023/06/03 12:10:28;;;;;;;5.10;2.20;;;21.90;1.00;;;;;;5056998;28;20244;-82
2023/06/03 12:12:55;;;;;;;6.17;2.20;;;22.00;1.00;;;;;;5041745;28;20726;-81
2023/06/03 12:15:23;;;;;;;5.40;2.13;;;22.00;1.00;;;;;;5056104;28;20207;-80
2023/06/03 12:17:49;;;;;;;6.40;2.10;;;22.00;1.00;;;;;;5039732;28;20255;-81
2023/06/03 12:20:29;;;;;;;7.47;2.20;;;22.10;1.00;;;;;;5056382;28;20316;-80
2023/06/03 12:23:02;;;;;;;6.20;2.23;;;22.30;1.00;;;;;;5033819;28;20186;-80
2023/06/03 12:25:28;;;;;;;5.03;1.80;;;22.20;1.00;;;;;;5053658;28;20174;-83
2023/06/03 12:27:57;;;;;;;8.33;2.40;;;21.80;1.00;;;;;;5054430;28;20177;-81
2023/06/03 12:30:34;;;;;;;4.40;1.60;;;22.00;1.00;;;;;;5035778;28;20185;-82
2023/06/03 12:33:01;;;;;;;5.20;2.00;;;22.00;1.00;;;;;;5054982;28;20225;-80
2023/06/03 12:35:27;;;;;;;6.93;2.00;;;22.00;1.00;;;;;;5064902;28;20189;-84
2023/06/03 12:38:08;;;;;;;7.43;1.87;;;22.00;1.00;;;;;;5054046;28;20190;-80
2023/06/03 12:40:35;;;;;;;5.60;2.20;;;22.10;1.00;;;;;;5034249;28;20178;-81
2023/06/03 12:43:04;;;;;;;5.57;2.30;;;22.20;1.00;;;;;;5036337;28;20229;-81
2023/06/03 12:45:30;;;;;;;8.27;2.13;;;22.40;1.00;;;;;;5054647;28;20655;-81
2023/06/03 12:47:56;;;;;;;5.63;1.87;;;22.70;1.00;;;;;;5055956;28;20177;-81
2023/06/03 12:50:29;;;;;;;7.03;1.87;;;22.70;1.00;;;;;;5060378;28;20177;-81
2023/06/03 12:52:55;;;;;;;6.13;2.07;;;22.50;1.00;;;;;;5054405;28;20185;-82
2023/06/03 12:55:25;;;;;;;6.00;2.00;;;22.40;1.00;;;;;;5036585;28;20179;-80
2023/06/03 12:57:53;;;;;;;4.00;2.20;;;22.30;1.00;;;;;;5036193;28;20591;-83
2023/06/03 13:00:21;;;;;;;4.57;2.10;;;22.40;1.00;;;;;;5061517;28;20189;-82